sensor_id;sensor_type;location;lat;lon;timestamp;pressure;altitude;pressure_sealevel;temperature;humidity
76637;BME280;65532;52.124;5.480;2023-06-14T00:02:20;101448.03;;;16.97;53.09
76637;BME280;65532;52.124;5.480;2023-06-14T00:04:47;101446.94;;;16.98;53.44
76637;BME280;65532;52.124;5.480;2023-06-14T00:07:14;101436.81;;;16.99;52.60
76637;BME280;65532;52.124;5.480;2023-06-14T00:09:43;101446.97;;;17.03;52.81
76637;BME280;65532;52.124;5.480;2023-06-14T00:12:09;101443.19;;;17.04;52.63
76637;BME280;65532;52.124;5.480;2023-06-14T00:14:36;101454.13;;;17.04;52.67
76637;BME280;65532;52.124;5.480;2023-06-14T00:17:03;101451.41;;;17.04;52.69
76637;BME280;65532;52.124;5.480;2023-06-14T00:19:29;101443.69;;;17.01;52.83
76637;BME280;65532;52.124;5.480;2023-06-14T00:21:59;101452.38;;;16.93;53.24
76637;BME280;65532;52.124;5.480;2023-06-14T00:24:26;101448.81;;;16.93;53.21
76637;BME280;65532;52.124;5.480;2023-06-14T00:26:52;101451.47;;;16.88;53.28
76637;BME280;65532;52.124;5.480;2023-06-14T00:29:19;101453.34;;;16.82;52.88
76637;BME280;65532;52.124;5.480;2023-06-14T00:31:45;101450.41;;;16.89;52.96
76637;BME280;65532;52.124;5.480;2023-06-14T00:34:12;101453.91;;;16.84;53.47
76637;BME280;65532;52.124;5.480;2023-06-14T00:36:40;101455.47;;;16.75;53.80
76637;BME280;65532;52.124;5.480;2023-06-14T00:39:06;101456.47;;;16.69;54.18
76637;BME280;65532;52.124;5.480;2023-06-14T00:41:34;101456.41;;;16.64;54.11
76637;BME280;65532;52.124;5.480;2023-06-14T00:44:01;101457.66;;;16.56;54.47
76637;BME280;65532;52.124;5.480;2023-06-14T00:46:27;101464.69;;;16.47;54.62
76637;BME280;65532;52.124;5.480;2023-06-14T00:48:56;101459.53;;;16.51;54.35
76637;BME280;65532;52.124;5.480;2023-06-14T00:51:23;101463.28;;;16.44;54.68
76637;BME280;65532;52.124;5.480;2023-06-14T00:53:50;101457.75;;;16.39;54.92
76637;BME280;65532;52.124;5.480;2023-06-14T00:56:17;101454.34;;;16.27;55.10
76637;BME280;65532;52.124;5.480;2023-06-14T00:58:49;101452.91;;;16.25;55.18
76637;BME280;65532;52.124;5.480;2023-06-14T01:01:17;101463.72;;;16.14;55.40
76637;BME280;65532;52.124;5.480;2023-06-14T01:03:43;101453.06;;;16.13;55.90
76637;BME280;65532;52.124;5.480;2023-06-14T01:06:55;101452.91;;;16.03;55.90
76637;BME280;65532;52.124;5.480;2023-06-14T01:09:18;101453.41;;;16.00;56.33
76637;BME280;65532;52.124;5.480;2023-06-14T01:12:10;101463.50;;;15.99;56.03
76637;BME280;65532;52.124;5.480;2023-06-14T01:14:39;101452.28;;;15.96;56.35
76637;BME280;65532;52.124;5.480;2023-06-14T01:17:07;101453.91;;;15.97;56.66
76637;BME280;65532;52.124;5.480;2023-06-14T01:19:44;101456.09;;;15.95;56.75
76637;BME280;65532;52.124;5.480;2023-06-14T01:22:13;101448.13;;;15.93;56.45
76637;BME280;65532;52.124;5.480;2023-06-14T01:24:40;101452.44;;;15.89;56.64
76637;BME280;65532;52.124;5.480;2023-06-14T01:27:12;101459.75;;;15.83;56.93
76637;BME280;65532;52.124;5.480;2023-06-14T01:29:39;101456.69;;;15.80;56.58
76637;BME280;65532;52.124;5.480;2023-06-14T01:32:14;101457.66;;;15.74;57.20
76637;BME280;65532;52.124;5.480;2023-06-14T01:34:40;101457.28;;;15.65;56.72
76637;BME280;65532;52.124;5.480;2023-06-14T01:37:08;101454.44;;;15.60;57.42
76637;BME280;65532;52.124;5.480;2023-06-14T01:39:34;101452.63;;;15.49;57.91
76637;BME280;65532;52.124;5.480;2023-06-14T01:42:01;101457.41;;;15.42;58.13
76637;BME280;65532;52.124;5.480;2023-06-14T01:44:28;101456.34;;;15.43;57.73
76637;BME280;65532;52.124;5.480;2023-06-14T01:46:57;101454.13;;;15.40;57.92
76637;BME280;65532;52.124;5.480;2023-06-14T01:49:24;101460.91;;;15.37;58.26
76637;BME280;65532;52.124;5.480;2023-06-14T01:51:50;101454.63;;;15.37;58.08
76637;BME280;65532;52.124;5.480;2023-06-14T01:54:17;101456.19;;;15.33;58.22
76637;BME280;65532;52.124;5.480;2023-06-14T01:56:44;101454.53;;;15.32;58.38
76637;BME280;65532;52.124;5.480;2023-06-14T01:59:10;101463.19;;;15.28;58.40
76637;BME280;65532;52.124;5.480;2023-06-14T02:01:37;101456.50;;;15.19;58.59
76637;BME280;65532;52.124;5.480;2023-06-14T02:04:04;101448.56;;;15.18;58.75
76637;BME280;65532;52.124;5.480;2023-06-14T02:06:30;101455.56;;;15.14;58.95
76637;BME280;65532;52.124;5.480;2023-06-14T02:08:57;101455.75;;;15.07;59.00
76637;BME280;65532;52.124;5.480;2023-06-14T02:11:27;101453.59;;;15.09;58.79
76637;BME280;65532;52.124;5.480;2023-06-14T02:13:54;101453.50;;;15.04;59.08
76637;BME280;65532;52.124;5.480;2023-06-14T02:16:21;101452.94;;;15.02;59.27
76637;BME280;65532;52.124;5.480;2023-06-14T02:18:48;101451.75;;;14.98;59.00
76637;BME280;65532;52.124;5.480;2023-06-14T02:21:16;101458.00;;;14.82;59.61
76637;BME280;65532;52.124;5.480;2023-06-14T02:23:45;101446.91;;;14.72;59.71
76637;BME280;65532;52.124;5.480;2023-06-14T02:26:11;101458.53;;;14.67;60.20
76637;BME280;65532;52.124;5.480;2023-06-14T02:28:38;101460.91;;;14.63;60.01
76637;BME280;65532;52.124;5.480;2023-06-14T02:31:07;101460.59;;;14.60;59.87
76637;BME280;65532;52.124;5.480;2023-06-14T02:33:34;101461.81;;;14.52;60.26
76637;BME280;65532;52.124;5.480;2023-06-14T02:36:01;101461.09;;;14.45;60.67
76637;BME280;65532;52.124;5.480;2023-06-14T02:38:29;101469.28;;;14.45;61.05
76637;BME280;65532;52.124;5.480;2023-06-14T02:40:55;101461.19;;;14.50;60.80
76637;BME280;65532;52.124;5.480;2023-06-14T02:43:22;101470.44;;;14.49;60.61
76637;BME280;65532;52.124;5.480;2023-06-14T02:45:48;101470.44;;;14.49;60.47
76637;BME280;65532;52.124;5.480;2023-06-14T02:48:15;101468.78;;;14.48;60.70
76637;BME280;65532;52.124;5.480;2023-06-14T02:50:41;101470.69;;;14.48;60.62
76637;BME280;65532;52.124;5.480;2023-06-14T02:53:08;101465.94;;;14.43;60.91
76637;BME280;65532;52.124;5.480;2023-06-14T02:55:35;101472.72;;;14.41;61.57
76637;BME280;65532;52.124;5.480;2023-06-14T02:58:06;101479.22;;;14.39;61.19
76637;BME280;65532;52.124;5.480;2023-06-14T03:00:33;101481.13;;;14.39;61.17
76637;BME280;65532;52.124;5.480;2023-06-14T03:03:01;101488.22;;;14.40;60.89
76637;BME280;65532;52.124;5.480;2023-06-14T03:05:28;101492.72;;;14.34;61.32
76637;BME280;65532;52.124;5.480;2023-06-14T03:07:55;101496.41;;;14.28;61.35
76637;BME280;65532;52.124;5.480;2023-06-14T03:10:22;101489.31;;;14.27;61.14
76637;BME280;65532;52.124;5.480;2023-06-14T03:12:50;101496.91;;;14.25;61.89
76637;BME280;65532;52.124;5.480;2023-06-14T03:15:20;101493.09;;;14.26;61.87
76637;BME280;65532;52.124;5.480;2023-06-14T03:17:50;101506.97;;;14.25;62.01
76637;BME280;65532;52.124;5.480;2023-06-14T03:20:17;101497.84;;;14.19;62.05
76637;BME280;65532;52.124;5.480;2023-06-14T03:22:45;101504.00;;;14.15;62.77
76637;BME280;65532;52.124;5.480;2023-06-14T03:25:12;101509.94;;;14.12;63.05
76637;BME280;65532;52.124;5.480;2023-06-14T03:27:40;101509.59;;;14.08;63.26
76637;BME280;65532;52.124;5.480;2023-06-14T03:30:07;101509.47;;;14.03;63.58
76637;BME280;65532;52.124;5.480;2023-06-14T03:32:34;101504.16;;;13.96;63.75
76637;BME280;65532;52.124;5.480;2023-06-14T03:35:02;101500.94;;;13.88;64.14
76637;BME280;65532;52.124;5.480;2023-06-14T03:37:29;101506.16;;;13.89;63.72
76637;BME280;65532;52.124;5.480;2023-06-14T03:39:55;101504.47;;;13.88;63.99
76637;BME280;65532;52.124;5.480;2023-06-14T03:42:23;101507.00;;;13.78;64.93
76637;BME280;65532;52.124;5.480;2023-06-14T03:44:50;101508.53;;;13.74;65.47
76637;BME280;65532;52.124;5.480;2023-06-14T03:47:19;101512.66;;;13.65;66.07
76637;BME280;65532;52.124;5.480;2023-06-14T03:49:45;101507.69;;;13.62;66.73
76637;BME280;65532;52.124;5.480;2023-06-14T03:52:12;101509.69;;;13.66;66.04
76637;BME280;65532;52.124;5.480;2023-06-14T03:54:42;101514.78;;;13.63;66.56
76637;BME280;65532;52.124;5.480;2023-06-14T03:57:31;101510.53;;;13.67;66.67
76637;BME280;65532;52.124;5.480;2023-06-14T03:59:58;101522.22;;;13.67;66.57
76637;BME280;65532;52.124;5.480;2023-06-14T04:02:26;101523.41;;;13.71;66.54
76637;BME280;65532;52.124;5.480;2023-06-14T04:04:55;101520.50;;;13.73;66.33
76637;BME280;65532;52.124;5.480;2023-06-14T04:07:22;101520.50;;;13.73;66.37
76637;BME280;65532;52.124;5.480;2023-06-14T04:09:49;101523.78;;;13.75;66.94
76637;BME280;65532;52.124;5.480;2023-06-14T04:12:17;101531.47;;;13.78;67.27
76637;BME280;65532;52.124;5.480;2023-06-14T04:14:43;101533.38;;;13.77;66.93
76637;BME280;65532;52.124;5.480;2023-06-14T04:17:11;101539.75;;;13.83;66.68
76637;BME280;65532;52.124;5.480;2023-06-14T04:19:39;101544.13;;;13.84;67.16
76637;BME280;65532;52.124;5.480;2023-06-14T04:22:06;101547.09;;;13.83;66.83
76637;BME280;65532;52.124;5.480;2023-06-14T04:24:34;101541.66;;;13.83;67.69
76637;BME280;65532;52.124;5.480;2023-06-14T04:27:02;101540.59;;;13.84;67.77
76637;BME280;65532;52.124;5.480;2023-06-14T04:29:29;101543.22;;;13.90;67.68
76637;BME280;65532;52.124;5.480;2023-06-14T04:32:00;101548.78;;;13.95;67.23
76637;BME280;65532;52.124;5.480;2023-06-14T04:34:28;101548.88;;;14.00;67.20
76637;BME280;65532;52.124;5.480;2023-06-14T04:36:59;101557.19;;;14.05;67.08
76637;BME280;65532;52.124;5.480;2023-06-14T04:39:31;101545.81;;;14.08;67.05
76637;BME280;65532;52.124;5.480;2023-06-14T04:41:59;101544.16;;;14.07;67.05
76637;BME280;65532;52.124;5.480;2023-06-14T04:44:27;101547.47;;;14.09;67.55
76637;BME280;65532;52.124;5.480;2023-06-14T04:47:00;101554.91;;;14.14;67.86
76637;BME280;65532;52.124;5.480;2023-06-14T04:49:27;101554.34;;;14.24;67.68
76637;BME280;65532;52.124;5.480;2023-06-14T04:51:54;101562.28;;;14.37;67.30
76637;BME280;65532;52.124;5.480;2023-06-14T04:54:33;101560.94;;;14.51;66.82
76637;BME280;65532;52.124;5.480;2023-06-14T04:57:01;101563.81;;;14.56;66.83
76637;BME280;65532;52.124;5.480;2023-06-14T04:59:29;101561.19;;;14.61;66.94
76637;BME280;65532;52.124;5.480;2023-06-14T05:01:59;101567.09;;;14.70;66.52
76637;BME280;65532;52.124;5.480;2023-06-14T05:04:27;101568.03;;;14.76;66.48
76637;BME280;65532;52.124;5.480;2023-06-14T05:06:55;101568.25;;;14.86;66.62
76637;BME280;65532;52.124;5.480;2023-06-14T05:09:22;101564.63;;;14.97;66.56
76637;BME280;65532;52.124;5.480;2023-06-14T05:11:49;101561.38;;;15.12;66.36
76637;BME280;65532;52.124;5.480;2023-06-14T05:14:16;101556.91;;;15.79;65.08
76637;BME280;65532;52.124;5.480;2023-06-14T05:16:45;101561.47;;;16.29;63.85
76637;BME280;65532;52.124;5.480;2023-06-14T05:19:12;101555.03;;;18.66;59.92
76637;BME280;65532;52.124;5.480;2023-06-14T05:21:39;101568.97;;;19.37;55.63
76637;BME280;65532;52.124;5.480;2023-06-14T05:24:09;101563.88;;;20.87;51.48
76637;BME280;65532;52.124;5.480;2023-06-14T05:26:35;101564.16;;;20.80;51.20
76637;BME280;65532;52.124;5.480;2023-06-14T05:29:02;101567.50;;;22.05;48.02
76637;BME280;65532;52.124;5.480;2023-06-14T05:31:29;101570.81;;;23.02;45.14
76637;BME280;65532;52.124;5.480;2023-06-14T05:33:56;101575.41;;;23.69;43.72
76637;BME280;65532;52.124;5.480;2023-06-14T05:36:22;101564.63;;;24.73;41.49
76637;BME280;65532;52.124;5.480;2023-06-14T05:38:49;101572.59;;;25.16;39.11
76637;BME280;65532;52.124;5.480;2023-06-14T05:41:17;101578.03;;;25.57;38.44
76637;BME280;65532;52.124;5.480;2023-06-14T05:43:43;101578.63;;;25.54;36.46
76637;BME280;65532;52.124;5.480;2023-06-14T05:46:10;101581.03;;;24.97;37.88
76637;BME280;65532;52.124;5.480;2023-06-14T05:48:36;101582.06;;;25.15;36.58
76637;BME280;65532;52.124;5.480;2023-06-14T05:51:03;101587.94;;;25.00;36.75
76637;BME280;65532;52.124;5.480;2023-06-14T05:53:30;101584.31;;;24.86;37.39
76637;BME280;65532;52.124;5.480;2023-06-14T05:55:56;101589.69;;;25.46;36.42
76637;BME280;65532;52.124;5.480;2023-06-14T05:58:23;101590.38;;;25.51;35.22
76637;BME280;65532;52.124;5.480;2023-06-14T06:00:49;101594.63;;;25.93;34.79
76637;BME280;65532;52.124;5.480;2023-06-14T06:03:17;101600.53;;;26.23;34.53
76637;BME280;65532;52.124;5.480;2023-06-14T06:05:43;101603.78;;;26.47;33.90
76637;BME280;65532;52.124;5.480;2023-06-14T06:08:10;101602.38;;;27.07;33.17
76637;BME280;65532;52.124;5.480;2023-06-14T06:10:36;101602.41;;;27.15;32.07
76637;BME280;65532;52.124;5.480;2023-06-14T06:13:03;101602.88;;;27.26;32.52
76637;BME280;65532;52.124;5.480;2023-06-14T06:15:29;101606.81;;;27.17;31.59
76637;BME280;65532;52.124;5.480;2023-06-14T06:17:56;101601.44;;;26.72;31.87
76637;BME280;65532;52.124;5.480;2023-06-14T06:20:23;101605.31;;;27.02;32.32
76637;BME280;65532;52.124;5.480;2023-06-14T06:22:55;101606.38;;;26.83;32.98
76637;BME280;65532;52.124;5.480;2023-06-14T06:25:22;101608.59;;;27.12;32.05
76637;BME280;65532;52.124;5.480;2023-06-14T06:27:49;101608.78;;;27.42;32.00
76637;BME280;65532;52.124;5.480;2023-06-14T06:30:16;101607.50;;;27.31;32.07
76637;BME280;65532;52.124;5.480;2023-06-14T06:32:42;101613.09;;;26.91;31.10
76637;BME280;65532;52.124;5.480;2023-06-14T06:35:09;101619.72;;;27.04;32.12
76637;BME280;65532;52.124;5.480;2023-06-14T06:37:38;101614.03;;;27.61;30.95
76637;BME280;65532;52.124;5.480;2023-06-14T06:40:05;101625.19;;;27.69;30.78
76637;BME280;65532;52.124;5.480;2023-06-14T06:42:32;101620.25;;;27.49;30.80
76637;BME280;65532;52.124;5.480;2023-06-14T06:45:02;101625.78;;;27.14;30.83
76637;BME280;65532;52.124;5.480;2023-06-14T06:47:28;101627.50;;;27.67;31.07
76637;BME280;65532;52.124;5.480;2023-06-14T06:49:55;101635.69;;;27.72;30.99
76637;BME280;65532;52.124;5.480;2023-06-14T06:52:21;101639.94;;;27.96;30.26
76637;BME280;65532;52.124;5.480;2023-06-14T06:54:48;101632.69;;;27.43;30.48
76637;BME280;65532;52.124;5.480;2023-06-14T06:57:15;101633.84;;;27.33;30.59
76637;BME280;65532;52.124;5.480;2023-06-14T06:59:42;101638.66;;;26.62;31.30
76637;BME280;65532;52.124;5.480;2023-06-14T07:02:08;101652.69;;;26.35;32.38
76637;BME280;65532;52.124;5.480;2023-06-14T07:04:35;101643.06;;;25.87;32.55
76637;BME280;65532;52.124;5.480;2023-06-14T07:07:02;101639.53;;;25.23;33.41
76637;BME280;65532;52.124;5.480;2023-06-14T07:09:28;101643.94;;;24.83;34.58
76637;BME280;65532;52.124;5.480;2023-06-14T07:11:55;101645.53;;;24.43;34.42
76637;BME280;65532;52.124;5.480;2023-06-14T07:14:21;101657.75;;;24.42;35.36
76637;BME280;65532;52.124;5.480;2023-06-14T07:16:49;101655.06;;;24.37;35.35
76637;BME280;65532;52.124;5.480;2023-06-14T07:19:16;101649.47;;;24.23;35.33
76637;BME280;65532;52.124;5.480;2023-06-14T07:21:43;101654.94;;;24.09;35.11
76637;BME280;65532;52.124;5.480;2023-06-14T07:24:10;101659.31;;;24.15;34.86
76637;BME280;65532;52.124;5.480;2023-06-14T07:26:37;101658.50;;;23.77;35.76
76637;BME280;65532;52.124;5.480;2023-06-14T07:29:03;101659.16;;;24.07;36.39
76637;BME280;65532;52.124;5.480;2023-06-14T07:31:30;101666.44;;;23.84;35.97
76637;BME280;65532;52.124;5.480;2023-06-14T07:33:56;101657.16;;;23.94;35.40
76637;BME280;65532;52.124;5.480;2023-06-14T07:36:23;101665.44;;;23.94;35.93
76637;BME280;65532;52.124;5.480;2023-06-14T07:38:50;101661.00;;;24.11;35.23
76637;BME280;65532;52.124;5.480;2023-06-14T07:41:16;101667.91;;;24.28;35.25
76637;BME280;65532;52.124;5.480;2023-06-14T07:43:43;101663.72;;;24.16;35.03
76637;BME280;65532;52.124;5.480;2023-06-14T07:46:10;101671.06;;;24.40;36.26
76637;BME280;65532;52.124;5.480;2023-06-14T07:48:36;101670.78;;;24.55;35.14
76637;BME280;65532;52.124;5.480;2023-06-14T07:51:03;101682.31;;;24.30;35.23
76637;BME280;65532;52.124;5.480;2023-06-14T07:53:30;101677.97;;;24.24;34.28
76637;BME280;65532;52.124;5.480;2023-06-14T07:55:57;101678.25;;;24.41;34.54
76637;BME280;65532;52.124;5.480;2023-06-14T07:58:24;101673.50;;;24.88;34.51
76637;BME280;65532;52.124;5.480;2023-06-14T08:00:50;101678.94;;;24.93;34.36
76637;BME280;65532;52.124;5.480;2023-06-14T08:03:17;101675.47;;;25.01;33.81
76637;BME280;65532;52.124;5.480;2023-06-14T08:05:44;101676.09;;;25.12;32.89
76637;BME280;65532;52.124;5.480;2023-06-14T08:08:11;101675.88;;;25.08;32.56
76637;BME280;65532;52.124;5.480;2023-06-14T08:10:37;101677.94;;;25.16;33.23
76637;BME280;65532;52.124;5.480;2023-06-14T08:13:04;101677.13;;;25.29;32.64
76637;BME280;65532;52.124;5.480;2023-06-14T08:15:30;101672.59;;;25.33;32.32
76637;BME280;65532;52.124;5.480;2023-06-14T08:17:57;101680.09;;;25.19;31.80
76637;BME280;65532;52.124;5.480;2023-06-14T08:20:26;101675.47;;;25.28;32.59
76637;BME280;65532;52.124;5.480;2023-06-14T08:22:53;101671.63;;;25.52;32.54
76637;BME280;65532;52.124;5.480;2023-06-14T08:25:23;101674.19;;;25.62;31.34
76637;BME280;65532;52.124;5.480;2023-06-14T08:27:49;101676.13;;;25.75;31.20
76637;BME280;65532;52.124;5.480;2023-06-14T08:30:16;101679.53;;;25.72;31.37
76637;BME280;65532;52.124;5.480;2023-06-14T08:32:44;101680.53;;;25.76;30.72
76637;BME280;65532;52.124;5.480;2023-06-14T08:35:11;101681.25;;;26.04;31.03
76637;BME280;65532;52.124;5.480;2023-06-14T08:37:41;101683.81;;;26.01;30.31
76637;BME280;65532;52.124;5.480;2023-06-14T08:40:20;101681.34;;;25.77;31.27
76637;BME280;65532;52.124;5.480;2023-06-14T08:42:52;101681.81;;;25.92;30.81
76637;BME280;65532;52.124;5.480;2023-06-14T08:45:20;101687.53;;;26.18;30.38
76637;BME280;65532;52.124;5.480;2023-06-14T08:47:51;101679.44;;;26.22;29.63
76637;BME280;65532;52.124;5.480;2023-06-14T08:50:25;101675.41;;;26.06;29.91
76637;BME280;65532;52.124;5.480;2023-06-14T08:53:01;101684.94;;;26.36;29.26
76637;BME280;65532;52.124;5.480;2023-06-14T08:55:30;101683.09;;;26.09;29.58
76637;BME280;65532;52.124;5.480;2023-06-14T08:58:01;101685.78;;;26.45;28.72
76637;BME280;65532;52.124;5.480;2023-06-14T09:00:30;101682.78;;;26.64;28.76
76637;BME280;65532;52.124;5.480;2023-06-14T09:02:59;101673.69;;;26.72;29.04
76637;BME280;65532;52.124;5.480;2023-06-14T09:05:26;101670.75;;;26.77;27.97
76637;BME280;65532;52.124;5.480;2023-06-14T09:07:53;101681.59;;;26.87;29.03
76637;BME280;65532;52.124;5.480;2023-06-14T09:10:21;101679.72;;;27.05;28.96
76637;BME280;65532;52.124;5.480;2023-06-14T09:12:48;101675.06;;;27.31;28.73
76637;BME280;65532;52.124;5.480;2023-06-14T09:15:15;101679.66;;;27.36;27.78
76637;BME280;65532;52.124;5.480;2023-06-14T09:17:41;101680.34;;;27.50;27.82
76637;BME280;65532;52.124;5.480;2023-06-14T09:20:08;101672.81;;;27.51;27.27
76637;BME280;65532;52.124;5.480;2023-06-14T09:22:37;101683.81;;;27.64;27.57
76637;BME280;65532;52.124;5.480;2023-06-14T09:25:05;101678.56;;;27.71;27.33
76637;BME280;65532;52.124;5.480;2023-06-14T09:27:32;101675.41;;;27.56;28.49
76637;BME280;65532;52.124;5.480;2023-06-14T09:30:03;101685.31;;;27.13;27.77
76637;BME280;65532;52.124;5.480;2023-06-14T09:32:29;101683.34;;;27.05;27.63
76637;BME280;65532;52.124;5.480;2023-06-14T09:34:57;101695.78;;;27.08;27.75
76637;BME280;65532;52.124;5.480;2023-06-14T09:37:31;101689.28;;;27.30;27.25
76637;BME280;65532;52.124;5.480;2023-06-14T09:39:58;101690.78;;;27.44;26.27
76637;BME280;65532;52.124;5.480;2023-06-14T09:42:25;101718.81;;;27.48;26.51
76637;BME280;65532;52.124;5.480;2023-06-14T09:44:53;101698.16;;;27.32;26.46
76637;BME280;65532;52.124;5.480;2023-06-14T09:47:21;101687.50;;;27.34;27.00
76637;BME280;65532;52.124;5.480;2023-06-14T09:49:49;101680.31;;;27.33;27.57
76637;BME280;65532;52.124;5.480;2023-06-14T09:52:17;101682.06;;;27.29;27.59
76637;BME280;65532;52.124;5.480;2023-06-14T09:54:46;101676.38;;;27.34;27.34
76637;BME280;65532;52.124;5.480;2023-06-14T09:57:14;101682.63;;;27.48;27.43
76637;BME280;65532;52.124;5.480;2023-06-14T09:59:43;101688.56;;;27.64;27.56
76637;BME280;65532;52.124;5.480;2023-06-14T10:02:25;101684.78;;;27.77;26.99
76637;BME280;65532;52.124;5.480;2023-06-14T10:05:03;101683.94;;;27.51;27.65
76637;BME280;65532;52.124;5.480;2023-06-14T10:07:38;101684.97;;;27.63;28.01
76637;BME280;65532;52.124;5.480;2023-06-14T10:10:07;101675.47;;;27.90;26.34
76637;BME280;65532;52.124;5.480;2023-06-14T10:12:33;101675.31;;;27.87;26.25
76637;BME280;65532;52.124;5.480;2023-06-14T10:15:00;101676.56;;;27.46;25.84
76637;BME280;65532;52.124;5.480;2023-06-14T10:17:42;101681.19;;;27.77;25.84
76637;BME280;65532;52.124;5.480;2023-06-14T10:20:37;101687.56;;;28.03;25.20
76637;BME280;65532;52.124;5.480;2023-06-14T10:23:10;101676.25;;;28.08;25.30
76637;BME280;65532;52.124;5.480;2023-06-14T10:25:38;101677.09;;;27.91;24.24
76637;BME280;65532;52.124;5.480;2023-06-14T10:33:27;101669.19;;;28.45;25.68
76637;BME280;65532;52.124;5.480;2023-06-14T10:38:58;101670.88;;;27.86;26.00
76637;BME280;65532;52.124;5.480;2023-06-14T10:41:28;101673.66;;;27.86;26.96
76637;BME280;65532;52.124;5.480;2023-06-14T10:46:45;101673.66;;;28.29;25.03
76637;BME280;65532;52.124;5.480;2023-06-14T10:49:16;101684.13;;;28.41;25.54
76637;BME280;65532;52.124;5.480;2023-06-14T10:51:49;101677.41;;;28.42;25.17
76637;BME280;65532;52.124;5.480;2023-06-14T10:54:16;101673.81;;;28.15;25.52
76637;BME280;65532;52.124;5.480;2023-06-14T10:56:46;101677.38;;;28.24;25.71
76637;BME280;65532;52.124;5.480;2023-06-14T10:59:15;101668.88;;;28.21;25.22
76637;BME280;65532;52.124;5.480;2023-06-14T11:01:58;101669.69;;;28.21;25.16
76637;BME280;65532;52.124;5.480;2023-06-14T11:05:05;101672.78;;;28.46;26.03
76637;BME280;65532;52.124;5.480;2023-06-14T11:07:50;101676.69;;;28.53;25.52
76637;BME280;65532;52.124;5.480;2023-06-14T11:10:38;101676.22;;;28.51;25.69
76637;BME280;65532;52.124;5.480;2023-06-14T11:13:05;101661.44;;;28.59;25.79
76637;BME280;65532;52.124;5.480;2023-06-14T11:15:33;101666.47;;;28.75;26.06
76637;BME280;65532;52.124;5.480;2023-06-14T11:18:01;101661.84;;;28.41;25.73
76637;BME280;65532;52.124;5.480;2023-06-14T11:20:31;101684.63;;;28.34;25.93
76637;BME280;65532;52.124;5.480;2023-06-14T11:22:58;101665.88;;;28.60;25.75
76637;BME280;65532;52.124;5.480;2023-06-14T11:25:25;101669.28;;;28.66;25.92
76637;BME280;65532;52.124;5.480;2023-06-14T11:27:52;101669.41;;;28.78;25.99
76637;BME280;65532;52.124;5.480;2023-06-14T11:30:19;101666.69;;;28.52;26.14
76637;BME280;65532;52.124;5.480;2023-06-14T11:32:50;101665.88;;;28.99;26.07
76637;BME280;65532;52.124;5.480;2023-06-14T11:35:25;101661.25;;;29.03;25.24
76637;BME280;65532;52.124;5.480;2023-06-14T11:37:58;101654.44;;;28.91;25.20
76637;BME280;65532;52.124;5.480;2023-06-14T11:40:25;101663.00;;;28.78;24.86
76637;BME280;65532;52.124;5.480;2023-06-14T11:42:59;101654.69;;;29.07;24.72
76637;BME280;65532;52.124;5.480;2023-06-14T11:45:26;101654.16;;;29.14;25.03
76637;BME280;65532;52.124;5.480;2023-06-14T11:47:57;101651.81;;;28.95;25.34
76637;BME280;65532;52.124;5.480;2023-06-14T11:50:25;101652.03;;;29.11;25.49
76637;BME280;65532;52.124;5.480;2023-06-14T11:52:59;101655.19;;;29.30;25.01
76637;BME280;65532;52.124;5.480;2023-06-14T11:55:30;101650.44;;;29.31;25.06
76637;BME280;65532;52.124;5.480;2023-06-14T11:57:56;101650.97;;;28.95;25.48
76637;BME280;65532;52.124;5.480;2023-06-14T12:00:26;101647.19;;;28.52;26.14
76637;BME280;65532;52.124;5.480;2023-06-14T12:02:54;101654.63;;;28.86;25.42
76637;BME280;65532;52.124;5.480;2023-06-14T12:05:24;101650.50;;;28.92;25.26
76637;BME280;65532;52.124;5.480;2023-06-14T12:07:59;101650.88;;;29.12;25.40
76637;BME280;65532;52.124;5.480;2023-06-14T12:10:27;101653.09;;;28.98;25.99
76637;BME280;65532;52.124;5.480;2023-06-14T12:12:57;101658.81;;;29.01;25.84
76637;BME280;65532;52.124;5.480;2023-06-14T12:15:28;101653.69;;;29.33;25.25
76637;BME280;65532;52.124;5.480;2023-06-14T12:17:56;101654.50;;;29.12;25.46
76637;BME280;65532;52.124;5.480;2023-06-14T12:20:29;101653.91;;;29.28;25.01
76637;BME280;65532;52.124;5.480;2023-06-14T12:22:57;101652.13;;;29.23;25.38
76637;BME280;65532;52.124;5.480;2023-06-14T12:25:28;101655.03;;;29.35;25.17
76637;BME280;65532;52.124;5.480;2023-06-14T12:27:58;101655.28;;;29.42;25.28
76637;BME280;65532;52.124;5.480;2023-06-14T12:30:25;101655.41;;;29.55;24.28
76637;BME280;65532;52.124;5.480;2023-06-14T12:32:52;101656.56;;;28.95;24.39
76637;BME280;65532;52.124;5.480;2023-06-14T12:35:18;101660.72;;;28.88;24.74
76637;BME280;65532;52.124;5.480;2023-06-14T12:37:46;101663.56;;;28.54;24.88
76637;BME280;65532;52.124;5.480;2023-06-14T12:40:13;101672.53;;;28.68;25.95
76637;BME280;65532;52.124;5.480;2023-06-14T12:42:40;101667.28;;;28.75;24.76
76637;BME280;65532;52.124;5.480;2023-06-14T12:45:08;101658.41;;;28.90;24.11
76637;BME280;65532;52.124;5.480;2023-06-14T12:47:34;101662.81;;;28.91;24.24
76637;BME280;65532;52.124;5.480;2023-06-14T12:50:02;101652.81;;;28.90;24.28
76637;BME280;65532;52.124;5.480;2023-06-14T12:52:28;101658.41;;;29.20;24.03
76637;BME280;65532;52.124;5.480;2023-06-14T12:54:55;101659.34;;;28.95;24.66
76637;BME280;65532;52.124;5.480;2023-06-14T12:57:22;101658.19;;;28.49;24.81
76637;BME280;65532;52.124;5.480;2023-06-14T12:59:49;101655.47;;;28.31;25.43
76637;BME280;65532;52.124;5.480;2023-06-14T13:02:17;101661.72;;;28.75;24.62
76637;BME280;65532;52.124;5.480;2023-06-14T13:04:44;101666.63;;;28.78;24.21
76637;BME280;65532;52.124;5.480;2023-06-14T13:07:11;101671.19;;;28.83;24.52
76637;BME280;65532;52.124;5.480;2023-06-14T13:09:37;101669.19;;;28.83;24.27